createdAt,value
2022-10-29T00:00:52.755Z,9.88
2022-10-29T00:03:20.428Z,25.52
2022-10-29T00:05:57.020Z,12.68
2022-10-29T00:08:23.768Z,15.68
2022-10-29T00:10:50.093Z,16.80
2022-10-29T00:13:16.530Z,19.80
2022-10-29T00:15:42.816Z,16.55
2022-10-29T00:18:09.183Z,13.40
2022-10-29T00:20:35.642Z,13.45
2022-10-29T00:23:02.014Z,19.60
2022-10-29T00:25:28.381Z,21.85
2022-10-29T00:27:56.313Z,12.93
2022-10-29T00:30:22.640Z,14.20
2022-10-29T00:32:48.942Z,16.58
2022-10-29T00:35:15.317Z,12.10
2022-10-29T00:37:41.672Z,16.73
2022-10-29T00:40:08.859Z,11.40
2022-10-29T00:42:35.349Z,10.63
2022-10-29T00:45:01.833Z,17.73
2022-10-29T00:47:36.001Z,14.77
2022-10-29T00:50:06.836Z,15.00
2022-10-29T00:52:36.890Z,11.88
2022-10-29T00:55:07.129Z,12.52
2022-10-29T00:57:41.897Z,10.98
2022-10-29T01:00:08.898Z,27.15
2022-10-29T01:02:38.097Z,19.73
2022-10-29T01:05:07.355Z,14.68
2022-10-29T01:10:00.370Z,13.07
2022-10-29T01:13:14.530Z,15.15
2022-10-29T01:18:31.195Z,12.73
2022-10-29T01:21:23.544Z,12.40
2022-10-29T01:24:33.675Z,14.20
2022-10-29T01:27:18.747Z,11.90
2022-10-29T01:30:01.922Z,13.82
2022-10-29T01:32:39.525Z,15.27
2022-10-29T01:35:18.787Z,16.73
2022-10-29T01:38:02.391Z,16.05
2022-10-29T01:40:40.666Z,11.13
2022-10-29T01:43:29.353Z,13.15
2022-10-29T01:46:21.704Z,11.45
2022-10-29T01:48:51.308Z,12.48
2022-10-29T01:51:22.635Z,12.20
2022-10-29T01:53:50.050Z,10.32
2022-10-29T01:56:17.116Z,13.65
2022-10-29T01:58:49.025Z,12.35
2022-10-29T02:01:33.579Z,10.10
2022-10-29T02:04:17.986Z,10.52
2022-10-29T02:07:22.979Z,13.13
2022-10-29T02:09:59.635Z,9.73
2022-10-29T02:12:39.699Z,11.90
2022-10-29T02:15:14.455Z,10.57
2022-10-29T02:17:40.959Z,13.63
2022-10-29T02:20:10.954Z,8.95
2022-10-29T02:22:37.437Z,17.45
2022-10-29T02:25:05.451Z,14.15
2022-10-29T02:27:32.047Z,12.73
2022-10-29T02:29:58.335Z,14.50
2022-10-29T02:32:24.679Z,16.08
2022-10-29T02:34:51.065Z,9.48
2022-10-29T02:37:17.740Z,10.25
2022-10-29T02:39:44.041Z,20.30
2022-10-29T02:42:10.587Z,13.95
2022-10-29T02:44:37.021Z,15.55
2022-10-29T02:47:03.449Z,16.02
2022-10-29T02:49:29.794Z,13.45
2022-10-29T02:51:56.135Z,15.70
2022-10-29T02:54:22.463Z,9.93
2022-10-29T02:56:48.867Z,11.93
2022-10-29T02:59:15.227Z,15.18
2022-10-29T03:01:41.704Z,15.15
2022-10-29T03:04:08.150Z,14.38
2022-10-29T03:06:34.482Z,14.13
2022-10-29T03:09:00.807Z,15.38
2022-10-29T03:11:27.151Z,10.98
2022-10-29T03:13:53.527Z,12.48
2022-10-29T03:16:19.935Z,11.43
2022-10-29T03:18:46.358Z,13.00
2022-10-29T03:21:12.820Z,13.85
2022-10-29T03:23:39.168Z,15.38
2022-10-29T03:26:05.577Z,12.73
2022-10-29T03:28:32.063Z,11.70
2022-10-29T03:30:58.789Z,11.50
2022-10-29T03:33:28.552Z,12.25
2022-10-29T03:36:03.642Z,14.77
2022-10-29T03:38:30.099Z,9.52
2022-10-29T03:40:56.892Z,14.20
2022-10-29T03:43:23.986Z,10.40
2022-10-29T03:45:52.368Z,14.90
2022-10-29T03:48:18.790Z,10.90
2022-10-29T03:50:45.193Z,11.30
2022-10-29T03:53:11.703Z,9.50
2022-10-29T03:55:38.071Z,11.32
2022-10-29T03:58:04.378Z,11.52
2022-10-29T04:00:30.696Z,12.70
2022-10-29T04:02:57.458Z,9.93
2022-10-29T04:05:23.954Z,10.57
2022-10-29T04:07:50.367Z,11.27
2022-10-29T04:10:16.894Z,20.25
2022-10-29T04:12:46.713Z,19.25
2022-10-29T04:15:13.050Z,16.98
2022-10-29T04:17:39.414Z,16.92
2022-10-29T04:20:13.808Z,45.08
2022-10-29T04:31:14.455Z,14.40
2022-10-29T04:33:40.854Z,22.63
2022-10-29T04:36:07.884Z,13.63
2022-10-29T04:38:34.416Z,12.82
2022-10-29T04:41:01.717Z,15.95
2022-10-29T04:43:28.939Z,16.02
2022-10-29T04:46:00.071Z,12.50
2022-10-29T04:48:27.862Z,14.50
2022-10-29T04:50:54.829Z,21.60
2022-10-29T04:53:21.766Z,31.05
2022-10-29T04:55:48.501Z,11.13
2022-10-29T04:58:17.502Z,16.33
2022-10-29T05:00:44.783Z,11.98
2022-10-29T05:03:11.655Z,9.75
2022-10-29T05:05:40.067Z,16.35
2022-10-29T05:08:07.117Z,12.48
2022-10-29T05:10:35.899Z,19.05
2022-10-29T05:13:05.610Z,12.05
2022-10-29T05:15:32.650Z,10.82
2022-10-29T05:17:59.919Z,10.82
2022-10-29T05:20:28.225Z,14.13
2022-10-29T05:23:06.440Z,13.13
2022-10-29T05:25:35.196Z,9.88
2022-10-29T05:28:12.512Z,8.13
2022-10-29T05:30:39.481Z,11.18
2022-10-29T05:33:09.657Z,10.65
2022-10-29T05:35:37.528Z,12.57
2022-10-29T05:38:04.949Z,14.38
2022-10-29T05:40:31.776Z,20.23
2022-10-29T05:42:58.739Z,35.17
2022-10-29T05:45:25.351Z,11.77
2022-10-29T05:47:59.391Z,21.67
2022-10-29T05:50:26.802Z,13.80
2022-10-29T05:52:58.345Z,8.32
2022-10-29T05:55:25.980Z,11.38
2022-10-29T05:57:59.762Z,17.80
2022-10-29T06:00:28.319Z,9.75
2022-10-29T06:02:55.683Z,15.00
2022-10-29T06:05:22.613Z,13.88
2022-10-29T06:07:56.752Z,18.52
2022-10-29T06:10:24.870Z,11.88
2022-10-29T06:12:51.188Z,13.60
2022-10-29T06:15:18.444Z,13.55
2022-10-29T06:17:45.828Z,13.20
2022-10-29T06:20:13.715Z,11.73
2022-10-29T06:22:40.258Z,12.20
2022-10-29T06:25:07.383Z,10.68
2022-10-29T06:27:33.771Z,14.57
2022-10-29T06:30:00.125Z,11.80
2022-10-29T06:32:26.461Z,11.50
2022-10-29T06:34:52.847Z,18.50
2022-10-29T06:37:19.177Z,15.18
2022-10-29T06:39:45.487Z,15.85
2022-10-29T06:42:11.802Z,13.52
2022-10-29T06:44:38.132Z,14.35
2022-10-29T06:47:04.848Z,11.00
2022-10-29T06:49:31.227Z,14.25
2022-10-29T06:51:57.586Z,16.02
2022-10-29T06:54:23.930Z,16.23
2022-10-29T06:56:50.247Z,14.80
2022-10-29T06:59:16.691Z,15.88
2022-10-29T07:01:43.161Z,9.50
2022-10-29T07:04:09.697Z,29.38
2022-10-29T07:06:36.124Z,39.88
2022-10-29T07:09:02.709Z,36.65
2022-10-29T07:11:29.702Z,66.40
2022-10-29T07:13:56.032Z,35.15
2022-10-29T07:16:22.468Z,23.35
2022-10-29T07:18:48.789Z,26.10
2022-10-29T07:21:15.146Z,34.25
2022-10-29T07:23:41.444Z,131.45
2022-10-29T07:26:08.097Z,128.43
2022-10-29T07:28:34.895Z,175.75
2022-10-29T07:31:01.721Z,126.15
2022-10-29T07:33:30.952Z,47.78
2022-10-29T07:35:58.461Z,42.20
2022-10-29T07:38:29.019Z,39.95
2022-10-29T07:40:55.401Z,45.08
2022-10-29T07:43:22.380Z,74.45
2022-10-29T07:45:50.518Z,155.07
2022-10-29T07:48:18.628Z,66.53
2022-10-29T07:50:48.642Z,55.35
2022-10-29T07:53:15.894Z,49.00
2022-10-29T07:55:44.406Z,59.03
2022-10-29T07:58:13.795Z,55.45
2022-10-29T08:00:43.023Z,40.75
2022-10-29T08:03:13.053Z,56.97
2022-10-29T08:05:53.732Z,23.42
2022-10-29T08:08:23.573Z,12.07
2022-10-29T08:10:49.915Z,12.15
2022-10-29T08:13:16.580Z,15.38
2022-10-29T08:15:46.257Z,16.67
2022-10-29T08:18:17.607Z,20.88
2022-10-29T08:20:44.169Z,12.25
2022-10-29T08:23:13.509Z,12.55
2022-10-29T08:25:43.235Z,12.73
2022-10-29T08:28:12.607Z,14.15
2022-10-29T08:30:41.548Z,13.27
2022-10-29T08:35:35.392Z,14.57
2022-10-29T08:38:01.714Z,13.48
2022-10-29T08:40:33.886Z,14.05
2022-10-29T08:43:18.617Z,15.13
2022-10-29T08:45:49.617Z,11.18
2022-10-29T08:48:22.181Z,16.23
2022-10-29T08:50:57.125Z,12.27
2022-10-29T08:53:36.379Z,17.40
2022-10-29T08:56:07.304Z,11.30
2022-10-29T08:58:43.329Z,13.35
2022-10-29T09:01:20.563Z,11.70
2022-10-29T09:03:47.214Z,12.77
2022-10-29T09:06:19.699Z,11.52
2022-10-29T09:08:53.848Z,10.32
2022-10-29T09:11:47.811Z,12.52
2022-10-29T09:14:44.199Z,13.18
2022-10-29T09:18:01.811Z,16.10
2022-10-29T09:20:52.891Z,13.60
2022-10-29T09:23:43.495Z,14.10
2022-10-29T09:26:30.548Z,11.70
2022-10-29T09:29:02.843Z,13.52
2022-10-29T09:31:43.072Z,13.40
2022-10-29T09:34:18.901Z,14.40
2022-10-29T09:36:46.753Z,9.95
2022-10-29T09:39:33.003Z,12.88
2022-10-29T09:42:03.084Z,12.45
2022-10-29T09:44:47.353Z,13.63
2022-10-29T09:47:34.109Z,16.38
2022-10-29T09:50:18.209Z,10.93
2022-10-29T09:52:46.951Z,14.85
2022-10-29T09:57:50.343Z,14.98
2022-10-29T10:00:25.450Z,10.98
2022-10-29T10:05:28.161Z,14.77
2022-10-29T10:08:03.761Z,9.30
2022-10-29T10:10:31.325Z,9.52
2022-10-29T10:13:03.381Z,13.65
2022-10-29T10:15:35.454Z,9.65
2022-10-29T10:18:24.435Z,9.30
2022-10-29T10:21:04.162Z,12.30
2022-10-29T10:23:46.597Z,11.48
2022-10-29T10:26:47.589Z,8.82
2022-10-29T10:29:23.660Z,9.88
2022-10-29T10:32:13.176Z,9.48
2022-10-29T10:34:39.759Z,9.57
2022-10-29T10:37:09.116Z,12.32
2022-10-29T10:39:39.424Z,9.80
2022-10-29T10:42:26.892Z,13.98
2022-10-29T10:45:18.238Z,11.75
2022-10-29T10:47:50.753Z,10.35
2022-10-29T10:50:31.567Z,12.65
2022-10-29T10:53:03.841Z,8.23
2022-10-29T10:55:38.863Z,10.38
2022-10-29T10:58:16.256Z,11.88
2022-10-29T11:00:49.189Z,18.52
2022-10-29T11:03:20.465Z,11.68
2022-10-29T11:05:51.902Z,10.73
2022-10-29T11:08:32.942Z,8.82
2022-10-29T11:11:06.853Z,11.00
2022-10-29T11:13:34.260Z,10.93
2022-10-29T11:16:28.280Z,16.98
2022-10-29T11:19:35.878Z,11.68
2022-10-29T11:22:17.767Z,8.68
2022-10-29T11:24:59.668Z,10.55
2022-10-29T11:27:47.936Z,13.82
2022-10-29T11:30:19.563Z,12.60
2022-10-29T11:33:21.528Z,12.32
2022-10-29T11:35:58.926Z,10.95
2022-10-29T11:38:33.836Z,15.63
2022-10-29T11:41:18.997Z,13.20
2022-10-29T11:43:47.254Z,10.25
2022-10-29T11:46:38.951Z,14.15
2022-10-29T11:49:32.431Z,10.75
2022-10-29T11:52:08.241Z,13.27
2022-10-29T11:54:46.743Z,10.10
2022-10-29T11:57:31.278Z,7.80
2022-10-29T12:00:19.114Z,9.82
2022-10-29T12:03:16.274Z,9.60
2022-10-29T12:06:12.692Z,8.75
2022-10-29T12:09:02.027Z,10.75
2022-10-29T12:11:43.299Z,9.05
2022-10-29T12:14:23.623Z,9.15
2022-10-29T12:17:09.386Z,11.35
2022-10-29T12:19:54.643Z,10.98
2022-10-29T12:22:44.260Z,11.38
2022-10-29T12:25:31.426Z,10.40
2022-10-29T12:28:19.560Z,12.63
2022-10-29T12:30:58.694Z,8.80
2022-10-29T12:33:39.707Z,11.40
2022-10-29T12:36:06.231Z,10.10
2022-10-29T12:38:47.136Z,11.05
2022-10-29T12:41:19.135Z,14.43
2022-10-29T12:43:46.459Z,27.85
2022-10-29T12:46:20.746Z,9.98
2022-10-29T12:49:18.445Z,9.60
2022-10-29T12:51:53.694Z,10.88
2022-10-29T12:54:35.566Z,10.15
2022-10-29T12:57:19.382Z,11.07
2022-10-29T12:59:45.979Z,8.85
2022-10-29T13:02:21.810Z,9.80
2022-10-29T13:05:06.842Z,12.13
2022-10-29T13:07:34.282Z,9.15
2022-10-29T13:10:27.001Z,9.05
2022-10-29T13:12:59.561Z,11.00
2022-10-29T13:15:31.428Z,13.10
2022-10-29T13:18:21.586Z,19.67
2022-10-29T13:20:53.171Z,22.42
2022-10-29T13:23:39.922Z,16.58
2022-10-29T13:26:08.192Z,10.90
2022-10-29T13:28:37.453Z,10.57
2022-10-29T13:31:03.813Z,19.45
2022-10-29T13:33:30.117Z,11.00
2022-10-29T13:36:00.355Z,13.50
2022-10-29T13:38:58.129Z,21.58
2022-10-29T13:41:44.463Z,24.80
2022-10-29T13:44:19.342Z,26.00
2022-10-29T13:47:00.364Z,14.70
2022-10-29T13:49:42.114Z,24.33
2022-10-29T13:52:08.535Z,9.48
2022-10-29T13:54:42.436Z,14.68
2022-10-29T13:57:21.152Z,16.58
2022-10-29T14:00:12.001Z,10.25
2022-10-29T14:02:54.085Z,10.95
2022-10-29T14:05:31.397Z,18.77
2022-10-29T14:08:15.631Z,8.15
2022-10-29T14:10:42.063Z,12.70
2022-10-29T14:13:14.466Z,7.85
2022-10-29T14:16:08.784Z,10.60
2022-10-29T14:18:46.394Z,10.32
2022-10-29T14:21:16.482Z,13.52
2022-10-29T14:24:04.634Z,9.85
2022-10-29T14:26:37.146Z,8.82
2022-10-29T14:29:24.105Z,9.35
2022-10-29T14:32:09.403Z,10.40
2022-10-29T14:34:35.772Z,12.07
2022-10-29T14:37:07.885Z,8.57
2022-10-29T14:39:55.330Z,10.40
2022-10-29T14:42:33.274Z,10.77
2022-10-29T14:45:07.159Z,9.07
2022-10-29T14:47:36.376Z,10.02
2022-10-29T14:50:06.279Z,8.13
2022-10-29T14:52:41.025Z,8.52
2022-10-29T14:55:14.214Z,13.90
2022-10-29T14:57:45.879Z,7.78
2022-10-29T15:00:30.488Z,8.48
2022-10-29T15:02:57.916Z,9.25
2022-10-29T15:05:28.746Z,12.25
2022-10-29T15:08:05.851Z,9.18
2022-10-29T15:10:32.807Z,9.93
2022-10-29T15:13:13.985Z,15.68
2022-10-29T15:15:56.814Z,18.77
2022-10-29T15:18:25.625Z,11.05
2022-10-29T15:20:54.620Z,11.35
2022-10-29T15:23:43.352Z,10.73
2022-10-29T15:26:19.316Z,14.52
2022-10-29T15:28:48.115Z,12.93
2022-10-29T15:31:29.083Z,11.05
2022-10-29T15:34:00.219Z,13.18
2022-10-29T15:36:26.555Z,13.52
2022-10-29T15:39:21.452Z,14.95
2022-10-29T15:41:49.656Z,16.30
2022-10-29T15:44:28.657Z,14.27
2022-10-29T15:46:59.047Z,11.52
2022-10-29T15:49:29.800Z,19.08
2022-10-29T15:52:00.551Z,19.25
2022-10-29T15:54:28.019Z,15.57
2022-10-29T15:56:54.624Z,16.77
2022-10-29T15:59:24.489Z,13.73
2022-10-29T16:01:50.982Z,12.65
2022-10-29T16:04:17.481Z,14.65
2022-10-29T16:06:43.911Z,14.20
2022-10-29T16:09:17.377Z,16.88
2022-10-29T16:11:43.915Z,15.90
2022-10-29T16:14:10.227Z,9.85
2022-10-29T16:16:37.288Z,14.10
2022-10-29T16:19:03.611Z,19.50
2022-10-29T16:21:32.939Z,19.63
2022-10-29T16:23:59.441Z,16.70
2022-10-29T16:26:26.472Z,13.60
2022-10-29T16:28:53.273Z,8.88
2022-10-29T16:31:28.241Z,12.80
2022-10-29T16:33:57.859Z,10.07
2022-10-29T16:36:24.702Z,16.02
2022-10-29T16:38:51.041Z,11.68
2022-10-29T16:41:19.103Z,17.70
2022-10-29T16:43:46.415Z,12.45
2022-10-29T16:46:13.913Z,10.50
2022-10-29T16:48:40.602Z,15.10
2022-10-29T16:51:07.345Z,12.30
2022-10-29T16:53:34.127Z,9.23
2022-10-29T16:56:01.547Z,10.13
2022-10-29T16:58:27.951Z,12.73
2022-10-29T17:01:06.271Z,14.40
2022-10-29T17:03:34.168Z,8.98
2022-10-29T17:06:06.941Z,10.63
2022-10-29T17:08:34.579Z,15.98
2022-10-29T17:11:02.475Z,14.90
2022-10-29T17:13:28.785Z,12.35
2022-10-29T17:15:55.643Z,10.90
2022-10-29T17:18:24.079Z,12.23
2022-10-29T17:21:01.035Z,12.25
2022-10-29T17:23:28.903Z,14.65
2022-10-29T17:25:57.326Z,12.23
2022-10-29T17:28:25.637Z,13.07
2022-10-29T17:30:52.375Z,18.40
2022-10-29T17:33:19.343Z,24.90
2022-10-29T17:35:46.082Z,15.10
2022-10-29T17:38:12.654Z,11.85
2022-10-29T17:40:39.154Z,10.48
2022-10-29T17:43:05.520Z,11.30
2022-10-29T17:45:31.858Z,19.15
2022-10-29T17:47:59.034Z,18.30
2022-10-29T17:50:25.873Z,13.40
2022-10-29T17:52:53.345Z,10.75
2022-10-29T17:55:20.441Z,8.68
2022-10-29T17:57:46.791Z,13.07
2022-10-29T18:00:13.633Z,12.07
2022-10-29T18:02:40.063Z,12.30
2022-10-29T18:05:07.377Z,9.50
2022-10-29T18:07:33.770Z,12.30
2022-10-29T18:10:00.259Z,12.80
2022-10-29T18:12:26.626Z,11.63
2022-10-29T18:14:53.004Z,8.43
2022-10-29T18:17:19.329Z,29.63
2022-10-29T18:19:45.688Z,7.35
2022-10-29T18:22:12.117Z,9.90
2022-10-29T18:24:38.540Z,9.57
2022-10-29T18:27:04.907Z,7.80
2022-10-29T18:29:31.387Z,10.60
2022-10-29T18:31:57.707Z,7.80
2022-10-29T18:34:24.180Z,10.68
2022-10-29T18:36:50.561Z,11.65
2022-10-29T18:39:17.349Z,12.88
2022-10-29T18:41:43.765Z,17.35
2022-10-29T18:44:10.146Z,19.23
2022-10-29T18:46:36.623Z,10.75
2022-10-29T18:49:03.098Z,10.50
2022-10-29T18:51:31.211Z,10.88
2022-10-29T18:53:58.932Z,24.33
2022-10-29T18:56:28.048Z,10.38
2022-10-29T18:58:55.563Z,10.57
2022-10-29T19:01:24.794Z,14.65
2022-10-29T19:03:53.225Z,15.63
2022-10-29T19:06:20.703Z,16.15
2022-10-29T19:08:47.623Z,25.33
2022-10-29T19:11:19.683Z,16.00
2022-10-29T19:13:57.081Z,13.95
2022-10-29T19:16:24.502Z,13.98
2022-10-29T19:18:59.012Z,16.67
2022-10-29T19:21:26.386Z,14.55
2022-10-29T19:23:57.592Z,14.55
2022-10-29T19:26:25.977Z,11.85
2022-10-29T19:28:53.044Z,18.40
2022-10-29T19:31:29.095Z,11.00
2022-10-29T19:33:58.737Z,29.38
2022-10-29T19:36:27.028Z,14.60
2022-10-29T19:38:53.705Z,9.27
2022-10-29T19:41:20.110Z,9.18
2022-10-29T19:43:46.738Z,12.35
2022-10-29T19:46:18.267Z,8.27
2022-10-29T19:48:50.226Z,20.60
2022-10-29T19:51:18.964Z,14.23
2022-10-29T19:53:46.033Z,12.70
2022-10-29T19:56:14.653Z,12.77
2022-10-29T19:58:41.297Z,17.38
2022-10-29T20:01:11.133Z,12.20
2022-10-29T20:03:37.602Z,21.60
2022-10-29T20:06:04.136Z,12.70
2022-10-29T20:08:33.134Z,14.98
2022-10-29T20:11:00.660Z,15.07
2022-10-29T20:13:27.686Z,17.23
2022-10-29T20:15:54.541Z,13.20
2022-10-29T20:18:21.583Z,12.13
2022-10-29T20:20:55.679Z,12.52
2022-10-29T20:23:23.029Z,15.20
2022-10-29T20:25:49.393Z,16.17
2022-10-29T20:28:16.279Z,11.80
2022-10-29T20:30:42.684Z,11.88
2022-10-29T20:33:09.210Z,15.30
2022-10-29T20:35:35.572Z,9.80
2022-10-29T20:38:02.079Z,11.30
2022-10-29T20:40:28.913Z,9.40
2022-10-29T20:42:55.321Z,18.60
2022-10-29T20:45:21.729Z,12.52
2022-10-29T20:47:48.162Z,12.68
2022-10-29T20:50:14.683Z,22.00
2022-10-29T20:52:45.685Z,12.10
2022-10-29T20:55:14.737Z,12.80
2022-10-29T20:57:41.196Z,14.27
2022-10-29T21:00:08.162Z,14.50
2022-10-29T21:02:34.592Z,13.57
2022-10-29T21:05:01.004Z,11.00
2022-10-29T21:07:27.326Z,13.75
2022-10-29T21:09:53.732Z,44.30
2022-10-29T21:12:20.097Z,11.48
2022-10-29T21:14:46.481Z,11.20
2022-10-29T21:17:12.789Z,12.13
2022-10-29T21:19:39.113Z,13.60
2022-10-29T21:22:05.794Z,26.38
2022-10-29T21:24:32.155Z,16.50
2022-10-29T21:26:58.608Z,11.30
2022-10-29T21:29:25.128Z,18.67
2022-10-29T21:31:51.490Z,20.15
2022-10-29T21:34:17.837Z,16.00
2022-10-29T21:36:44.239Z,14.73
2022-10-29T21:39:10.532Z,11.52
2022-10-29T21:41:36.828Z,12.73
2022-10-29T21:44:03.270Z,12.48
2022-10-29T21:46:29.610Z,14.20
2022-10-29T21:48:59.535Z,14.10
2022-10-29T21:51:25.888Z,21.25
2022-10-29T21:53:57.911Z,15.07
2022-10-29T21:56:26.216Z,13.93
2022-10-29T21:58:53.085Z,14.52
2022-10-29T22:01:20.291Z,18.13
2022-10-29T22:03:47.836Z,12.65
2022-10-29T22:06:15.838Z,15.95
2022-10-29T22:08:43.158Z,19.42
2022-10-29T22:11:10.412Z,26.90
2022-10-29T22:13:37.576Z,13.73
2022-10-29T22:16:05.427Z,19.52
2022-10-29T22:18:32.066Z,17.55
2022-10-29T22:21:23.027Z,12.75
2022-10-29T22:23:52.702Z,33.80
2022-10-29T22:26:22.296Z,24.27
2022-10-29T22:28:50.097Z,10.80
2022-10-29T22:31:18.903Z,9.75
2022-10-29T22:33:45.730Z,12.27
2022-10-29T22:36:14.865Z,69.05
2022-10-29T22:38:41.628Z,23.55
2022-10-29T22:41:10.704Z,11.80
2022-10-29T22:43:37.693Z,14.02
2022-10-29T22:46:05.840Z,12.30
2022-10-29T22:48:32.554Z,10.23
2022-10-29T22:51:13.571Z,12.75
2022-10-29T22:53:40.220Z,26.20
2022-10-29T22:56:07.551Z,10.05
2022-10-29T22:58:33.985Z,25.92
2022-10-29T23:01:06.049Z,16.58
2022-10-29T23:03:33.182Z,14.60
2022-10-29T23:06:01.084Z,14.55
2022-10-29T23:08:28.045Z,14.52
2022-10-29T23:10:54.751Z,19.15
2022-10-29T23:13:21.333Z,24.23
2022-10-29T23:15:49.702Z,27.17
2022-10-29T23:18:16.252Z,73.60
2022-10-29T23:20:43.683Z,9.55
2022-10-29T23:23:10.398Z,11.82
2022-10-29T23:25:40.726Z,20.38
2022-10-29T23:28:07.560Z,12.88
2022-10-29T23:30:34.383Z,15.98
2022-10-29T23:33:00.938Z,16.58
2022-10-29T23:35:27.324Z,16.08
2022-10-29T23:37:53.647Z,20.98
2022-10-29T23:40:20.079Z,19.33
2022-10-29T23:42:46.395Z,11.10
2022-10-29T23:45:13.810Z,18.92
2022-10-29T23:47:40.163Z,12.77
2022-10-29T23:50:07.059Z,18.25
2022-10-29T23:52:33.558Z,11.90
2022-10-29T23:54:59.951Z,23.00
2022-10-29T23:57:26.356Z,14.48
2022-10-29T23:59:52.722Z,14.15
